sensor_id;sensor_type;location;lat;lon;timestamp;temperature;humidity
10384;DHT22;5238;43.508;4.980;2022-12-20T00:01:20;14.50;91.30
10384;DHT22;5238;43.508;4.980;2022-12-20T00:03:50;14.50;91.30
10384;DHT22;5238;43.508;4.980;2022-12-20T00:06:19;14.50;91.30
10384;DHT22;5238;43.508;4.980;2022-12-20T00:08:52;14.50;91.30
10384;DHT22;5238;43.508;4.980;2022-12-20T00:11:20;14.50;91.30
10384;DHT22;5238;43.508;4.980;2022-12-20T00:13:47;14.40;91.30
10384;DHT22;5238;43.508;4.980;2022-12-20T00:16:16;14.50;91.30
10384;DHT22;5238;43.508;4.980;2022-12-20T00:18:43;14.50;91.30
10384;DHT22;5238;43.508;4.980;2022-12-20T00:21:14;14.50;91.30
10384;DHT22;5238;43.508;4.980;2022-12-20T00:23:41;14.50;91.30
10384;DHT22;5238;43.508;4.980;2022-12-20T00:26:09;14.40;91.30
10384;DHT22;5238;43.508;4.980;2022-12-20T00:28:38;14.40;91.30
10384;DHT22;5238;43.508;4.980;2022-12-20T00:31:08;14.40;91.30
10384;DHT22;5238;43.508;4.980;2022-12-20T00:33:36;14.40;91.30
10384;DHT22;5238;43.508;4.980;2022-12-20T00:36:05;14.40;91.30
10384;DHT22;5238;43.508;4.980;2022-12-20T00:38:34;14.40;91.30
10384;DHT22;5238;43.508;4.980;2022-12-20T00:41:03;14.40;91.30
10384;DHT22;5238;43.508;4.980;2022-12-20T00:43:31;14.40;91.30
10384;DHT22;5238;43.508;4.980;2022-12-20T00:46:01;14.40;91.30
10384;DHT22;5238;43.508;4.980;2022-12-20T00:48:29;14.40;91.30
10384;DHT22;5238;43.508;4.980;2022-12-20T00:50:59;14.40;91.30
10384;DHT22;5238;43.508;4.980;2022-12-20T00:53:26;14.40;91.30
10384;DHT22;5238;43.508;4.980;2022-12-20T00:55:55;14.40;91.30
10384;DHT22;5238;43.508;4.980;2022-12-20T00:58:23;14.40;91.30
10384;DHT22;5238;43.508;4.980;2022-12-20T01:00:50;14.40;91.30
10384;DHT22;5238;43.508;4.980;2022-12-20T01:03:18;14.40;91.30
10384;DHT22;5238;43.508;4.980;2022-12-20T01:05:50;14.40;91.30
10384;DHT22;5238;43.508;4.980;2022-12-20T01:08:18;14.40;91.30
10384;DHT22;5238;43.508;4.980;2022-12-20T01:10:45;14.40;91.30
10384;DHT22;5238;43.508;4.980;2022-12-20T01:13:16;14.40;91.30
10384;DHT22;5238;43.508;4.980;2022-12-20T01:15:44;14.40;91.30
10384;DHT22;5238;43.508;4.980;2022-12-20T01:18:11;14.40;91.30
10384;DHT22;5238;43.508;4.980;2022-12-20T01:20:37;14.40;91.30
10384;DHT22;5238;43.508;4.980;2022-12-20T01:23:04;14.40;91.30
10384;DHT22;5238;43.508;4.980;2022-12-20T01:25:32;14.40;91.30
10384;DHT22;5238;43.508;4.980;2022-12-20T01:27:59;14.40;91.30
10384;DHT22;5238;43.508;4.980;2022-12-20T01:30:27;14.40;91.30
10384;DHT22;5238;43.508;4.980;2022-12-20T01:32:54;14.40;91.30
10384;DHT22;5238;43.508;4.980;2022-12-20T01:35:21;14.40;91.30
10384;DHT22;5238;43.508;4.980;2022-12-20T01:37:48;14.40;91.30
10384;DHT22;5238;43.508;4.980;2022-12-20T01:40:15;14.40;91.30
10384;DHT22;5238;43.508;4.980;2022-12-20T01:42:42;14.40;91.30
10384;DHT22;5238;43.508;4.980;2022-12-20T01:45:22;14.40;91.30
10384;DHT22;5238;43.508;4.980;2022-12-20T01:47:53;14.40;91.30
10384;DHT22;5238;43.508;4.980;2022-12-20T01:50:21;14.40;91.30
10384;DHT22;5238;43.508;4.980;2022-12-20T01:52:49;14.40;91.30
10384;DHT22;5238;43.508;4.980;2022-12-20T01:55:20;14.40;91.30
10384;DHT22;5238;43.508;4.980;2022-12-20T01:57:51;14.40;91.30
10384;DHT22;5238;43.508;4.980;2022-12-20T02:00:19;14.40;91.30
10384;DHT22;5238;43.508;4.980;2022-12-20T02:02:48;14.40;91.30
10384;DHT22;5238;43.508;4.980;2022-12-20T02:05:18;14.40;91.30
10384;DHT22;5238;43.508;4.980;2022-12-20T02:07:48;14.40;91.30
10384;DHT22;5238;43.508;4.980;2022-12-20T02:10:18;14.40;91.30
10384;DHT22;5238;43.508;4.980;2022-12-20T02:12:47;14.40;91.30
10384;DHT22;5238;43.508;4.980;2022-12-20T02:15:34;14.40;91.30
10384;DHT22;5238;43.508;4.980;2022-12-20T02:18:21;14.40;91.30
10384;DHT22;5238;43.508;4.980;2022-12-20T02:21:15;14.40;91.30
10384;DHT22;5238;43.508;4.980;2022-12-20T02:27:08;14.40;91.30
10384;DHT22;5238;43.508;4.980;2022-12-20T02:30:06;14.40;91.30
10384;DHT22;5238;43.508;4.980;2022-12-20T02:32:48;14.40;91.30
10384;DHT22;5238;43.508;4.980;2022-12-20T02:35:21;14.40;91.30
10384;DHT22;5238;43.508;4.980;2022-12-20T02:37:50;14.40;91.30
10384;DHT22;5238;43.508;4.980;2022-12-20T02:40:21;14.30;91.30
10384;DHT22;5238;43.508;4.980;2022-12-20T02:42:52;14.30;91.30
10384;DHT22;5238;43.508;4.980;2022-12-20T02:45:27;14.30;91.30
10384;DHT22;5238;43.508;4.980;2022-12-20T02:47:58;14.40;91.30
10384;DHT22;5238;43.508;4.980;2022-12-20T02:50:29;14.40;91.30
10384;DHT22;5238;43.508;4.980;2022-12-20T02:52:57;14.40;91.30
10384;DHT22;5238;43.508;4.980;2022-12-20T02:55:30;14.40;91.30
10384;DHT22;5238;43.508;4.980;2022-12-20T02:58:04;14.40;91.30
10384;DHT22;5238;43.508;4.980;2022-12-20T03:00:39;14.40;91.30
10384;DHT22;5238;43.508;4.980;2022-12-20T03:03:08;14.40;91.30
10384;DHT22;5238;43.508;4.980;2022-12-20T03:05:52;14.40;91.30
10384;DHT22;5238;43.508;4.980;2022-12-20T03:08:20;14.40;91.30
10384;DHT22;5238;43.508;4.980;2022-12-20T03:10:48;14.30;91.30
10384;DHT22;5238;43.508;4.980;2022-12-20T03:13:15;14.30;91.30
10384;DHT22;5238;43.508;4.980;2022-12-20T03:15:44;14.30;91.30
10384;DHT22;5238;43.508;4.980;2022-12-20T03:18:11;14.30;91.30
10384;DHT22;5238;43.508;4.980;2022-12-20T03:20:40;14.30;91.30
10384;DHT22;5238;43.508;4.980;2022-12-20T03:23:07;14.20;91.30
10384;DHT22;5238;43.508;4.980;2022-12-20T03:25:34;14.20;91.30
10384;DHT22;5238;43.508;4.980;2022-12-20T03:28:01;14.20;91.30
10384;DHT22;5238;43.508;4.980;2022-12-20T03:30:28;14.20;91.30
10384;DHT22;5238;43.508;4.980;2022-12-20T03:32:56;14.20;91.30
10384;DHT22;5238;43.508;4.980;2022-12-20T03:35:24;14.20;91.30
10384;DHT22;5238;43.508;4.980;2022-12-20T03:37:51;14.20;91.30
10384;DHT22;5238;43.508;4.980;2022-12-20T03:40:18;14.20;91.30
10384;DHT22;5238;43.508;4.980;2022-12-20T03:42:45;14.20;91.30
10384;DHT22;5238;43.508;4.980;2022-12-20T03:45:12;14.30;91.30
10384;DHT22;5238;43.508;4.980;2022-12-20T03:47:39;14.30;91.30
10384;DHT22;5238;43.508;4.980;2022-12-20T03:50:08;14.40;91.30
10384;DHT22;5238;43.508;4.980;2022-12-20T03:52:38;14.50;91.30
10384;DHT22;5238;43.508;4.980;2022-12-20T03:55:07;14.50;91.30
10384;DHT22;5238;43.508;4.980;2022-12-20T03:57:34;14.60;91.30
10384;DHT22;5238;43.508;4.980;2022-12-20T04:00:03;14.60;91.30
10384;DHT22;5238;43.508;4.980;2022-12-20T04:02:31;14.70;91.30
10384;DHT22;5238;43.508;4.980;2022-12-20T04:04:58;14.80;91.30
10384;DHT22;5238;43.508;4.980;2022-12-20T04:07:26;14.80;91.30
10384;DHT22;5238;43.508;4.980;2022-12-20T04:09:53;14.80;91.30
10384;DHT22;5238;43.508;4.980;2022-12-20T04:12:20;14.80;91.30
10384;DHT22;5238;43.508;4.980;2022-12-20T04:14:47;14.80;91.30
10384;DHT22;5238;43.508;4.980;2022-12-20T04:17:14;14.80;91.30
10384;DHT22;5238;43.508;4.980;2022-12-20T04:19:41;14.70;91.30
10384;DHT22;5238;43.508;4.980;2022-12-20T04:22:10;14.70;91.30
10384;DHT22;5238;43.508;4.980;2022-12-20T04:24:40;14.70;91.30
10384;DHT22;5238;43.508;4.980;2022-12-20T04:27:06;14.60;91.30
10384;DHT22;5238;43.508;4.980;2022-12-20T04:29:33;14.60;91.30
10384;DHT22;5238;43.508;4.980;2022-12-20T04:32:00;14.50;91.30
10384;DHT22;5238;43.508;4.980;2022-12-20T04:34:27;14.50;91.30
10384;DHT22;5238;43.508;4.980;2022-12-20T04:36:54;14.50;91.30
10384;DHT22;5238;43.508;4.980;2022-12-20T04:39:22;14.50;91.30
10384;DHT22;5238;43.508;4.980;2022-12-20T04:41:53;14.50;91.30
10384;DHT22;5238;43.508;4.980;2022-12-20T04:44:20;14.50;91.30
10384;DHT22;5238;43.508;4.980;2022-12-20T04:46:47;14.40;91.30
10384;DHT22;5238;43.508;4.980;2022-12-20T04:49:15;14.40;91.30
10384;DHT22;5238;43.508;4.980;2022-12-20T04:51:42;14.40;91.30
10384;DHT22;5238;43.508;4.980;2022-12-20T04:54:09;14.40;91.30
10384;DHT22;5238;43.508;4.980;2022-12-20T04:56:35;14.40;91.30
10384;DHT22;5238;43.508;4.980;2022-12-20T04:59:05;14.40;91.30
10384;DHT22;5238;43.508;4.980;2022-12-20T05:01:32;14.40;91.30
10384;DHT22;5238;43.508;4.980;2022-12-20T05:03:59;14.30;91.30
10384;DHT22;5238;43.508;4.980;2022-12-20T05:06:26;14.30;91.30
10384;DHT22;5238;43.508;4.980;2022-12-20T05:08:53;14.40;91.30
10384;DHT22;5238;43.508;4.980;2022-12-20T05:11:20;14.40;91.30
10384;DHT22;5238;43.508;4.980;2022-12-20T05:13:47;14.40;91.30
10384;DHT22;5238;43.508;4.980;2022-12-20T05:16:16;14.40;91.30
10384;DHT22;5238;43.508;4.980;2022-12-20T05:18:43;14.40;91.30
10384;DHT22;5238;43.508;4.980;2022-12-20T05:21:10;14.40;91.30
10384;DHT22;5238;43.508;4.980;2022-12-20T05:23:55;14.40;91.30
10384;DHT22;5238;43.508;4.980;2022-12-20T05:26:40;14.40;91.30
10384;DHT22;5238;43.508;4.980;2022-12-20T05:29:08;14.40;91.30
10384;DHT22;5238;43.508;4.980;2022-12-20T05:31:38;14.40;91.30
10384;DHT22;5238;43.508;4.980;2022-12-20T05:34:07;14.40;91.30
10384;DHT22;5238;43.508;4.980;2022-12-20T05:36:35;14.30;91.30
10384;DHT22;5238;43.508;4.980;2022-12-20T05:39:03;14.30;91.30
10384;DHT22;5238;43.508;4.980;2022-12-20T05:41:30;14.30;91.30
10384;DHT22;5238;43.508;4.980;2022-12-20T05:43:58;14.30;91.30
10384;DHT22;5238;43.508;4.980;2022-12-20T05:46:25;14.30;91.30
10384;DHT22;5238;43.508;4.980;2022-12-20T05:48:53;14.30;91.30
10384;DHT22;5238;43.508;4.980;2022-12-20T05:51:20;14.30;91.30
10384;DHT22;5238;43.508;4.980;2022-12-20T05:53:49;14.30;91.30
10384;DHT22;5238;43.508;4.980;2022-12-20T05:56:16;14.20;91.30
10384;DHT22;5238;43.508;4.980;2022-12-20T05:58:43;14.20;91.30
10384;DHT22;5238;43.508;4.980;2022-12-20T06:01:10;14.20;91.30
10384;DHT22;5238;43.508;4.980;2022-12-20T06:03:38;14.20;91.30
10384;DHT22;5238;43.508;4.980;2022-12-20T06:06:07;14.20;91.30
10384;DHT22;5238;43.508;4.980;2022-12-20T06:08:36;14.10;91.30
10384;DHT22;5238;43.508;4.980;2022-12-20T06:11:04;14.10;91.30
10384;DHT22;5238;43.508;4.980;2022-12-20T06:13:31;14.10;91.30
10384;DHT22;5238;43.508;4.980;2022-12-20T06:15:58;14.10;91.30
10384;DHT22;5238;43.508;4.980;2022-12-20T06:18:26;14.10;91.30
10384;DHT22;5238;43.508;4.980;2022-12-20T06:20:53;14.20;91.30
10384;DHT22;5238;43.508;4.980;2022-12-20T06:23:22;14.20;91.30
10384;DHT22;5238;43.508;4.980;2022-12-20T06:25:49;14.20;91.30
10384;DHT22;5238;43.508;4.980;2022-12-20T06:28:16;14.20;91.30
10384;DHT22;5238;43.508;4.980;2022-12-20T06:30:52;14.20;91.30
10384;DHT22;5238;43.508;4.980;2022-12-20T06:33:21;14.20;91.30
10384;DHT22;5238;43.508;4.980;2022-12-20T06:35:49;14.20;91.30
10384;DHT22;5238;43.508;4.980;2022-12-20T06:38:16;14.20;91.30
10384;DHT22;5238;43.508;4.980;2022-12-20T06:40:45;14.20;91.30
10384;DHT22;5238;43.508;4.980;2022-12-20T06:43:12;14.20;91.30
10384;DHT22;5238;43.508;4.980;2022-12-20T06:45:39;14.20;91.30
10384;DHT22;5238;43.508;4.980;2022-12-20T06:48:06;14.20;91.30
10384;DHT22;5238;43.508;4.980;2022-12-20T06:50:36;14.20;91.30
10384;DHT22;5238;43.508;4.980;2022-12-20T06:53:03;14.20;91.30
10384;DHT22;5238;43.508;4.980;2022-12-20T06:55:30;14.20;91.30
10384;DHT22;5238;43.508;4.980;2022-12-20T06:58:02;14.20;91.30
10384;DHT22;5238;43.508;4.980;2022-12-20T07:00:29;14.10;91.30
10384;DHT22;5238;43.508;4.980;2022-12-20T07:02:56;14.20;91.30
10384;DHT22;5238;43.508;4.980;2022-12-20T07:05:23;14.20;91.30
10384;DHT22;5238;43.508;4.980;2022-12-20T07:07:50;14.20;91.30
10384;DHT22;5238;43.508;4.980;2022-12-20T07:10:17;14.20;91.30
10384;DHT22;5238;43.508;4.980;2022-12-20T07:12:46;14.20;91.30
10384;DHT22;5238;43.508;4.980;2022-12-20T07:15:16;14.20;91.30
10384;DHT22;5238;43.508;4.980;2022-12-20T07:17:43;14.20;91.30
10384;DHT22;5238;43.508;4.980;2022-12-20T07:20:12;14.20;91.30
10384;DHT22;5238;43.508;4.980;2022-12-20T07:22:39;14.20;91.30
10384;DHT22;5238;43.508;4.980;2022-12-20T07:25:06;14.20;91.30
10384;DHT22;5238;43.508;4.980;2022-12-20T07:27:36;14.20;91.30
10384;DHT22;5238;43.508;4.980;2022-12-20T07:30:04;14.20;91.30
10384;DHT22;5238;43.508;4.980;2022-12-20T07:32:33;14.20;91.30
10384;DHT22;5238;43.508;4.980;2022-12-20T07:35:00;14.30;91.30
10384;DHT22;5238;43.508;4.980;2022-12-20T07:37:28;14.30;91.30
10384;DHT22;5238;43.508;4.980;2022-12-20T07:39:55;14.30;91.30
10384;DHT22;5238;43.508;4.980;2022-12-20T07:42:23;14.30;91.30
10384;DHT22;5238;43.508;4.980;2022-12-20T07:44:50;14.40;91.30
10384;DHT22;5238;43.508;4.980;2022-12-20T07:47:17;14.40;91.30
10384;DHT22;5238;43.508;4.980;2022-12-20T07:49:46;14.50;91.30
10384;DHT22;5238;43.508;4.980;2022-12-20T07:52:16;14.60;91.30
10384;DHT22;5238;43.508;4.980;2022-12-20T07:54:47;14.70;91.30
10384;DHT22;5238;43.508;4.980;2022-12-20T07:57:20;14.80;91.30
10384;DHT22;5238;43.508;4.980;2022-12-20T07:59:53;14.80;91.30
10384;DHT22;5238;43.508;4.980;2022-12-20T08:02:25;14.80;91.30
10384;DHT22;5238;43.508;4.980;2022-12-20T08:04:54;14.90;91.30
10384;DHT22;5238;43.508;4.980;2022-12-20T08:07:22;14.90;91.30
10384;DHT22;5238;43.508;4.980;2022-12-20T08:09:49;15.00;91.30
10384;DHT22;5238;43.508;4.980;2022-12-20T08:12:18;15.10;91.30
10384;DHT22;5238;43.508;4.980;2022-12-20T08:14:46;15.20;91.30
10384;DHT22;5238;43.508;4.980;2022-12-20T08:17:16;15.30;91.30
10384;DHT22;5238;43.508;4.980;2022-12-20T08:19:43;15.40;91.30
10384;DHT22;5238;43.508;4.980;2022-12-20T08:22:13;15.50;91.30
10384;DHT22;5238;43.508;4.980;2022-12-20T08:24:40;15.60;91.30
10384;DHT22;5238;43.508;4.980;2022-12-20T08:27:08;15.60;91.30
10384;DHT22;5238;43.508;4.980;2022-12-20T08:29:35;15.70;91.30
10384;DHT22;5238;43.508;4.980;2022-12-20T08:32:02;15.70;91.30
10384;DHT22;5238;43.508;4.980;2022-12-20T08:34:29;15.80;91.30
10384;DHT22;5238;43.508;4.980;2022-12-20T08:36:59;15.80;91.30
10384;DHT22;5238;43.508;4.980;2022-12-20T08:39:28;15.80;91.30
10384;DHT22;5238;43.508;4.980;2022-12-20T08:41:55;15.70;91.30
10384;DHT22;5238;43.508;4.980;2022-12-20T08:44:22;15.60;91.30
10384;DHT22;5238;43.508;4.980;2022-12-20T08:46:50;15.50;91.30
10384;DHT22;5238;43.508;4.980;2022-12-20T08:49:18;15.50;91.30
10384;DHT22;5238;43.508;4.980;2022-12-20T08:51:46;15.40;91.30
10384;DHT22;5238;43.508;4.980;2022-12-20T08:54:13;15.40;91.30
10384;DHT22;5238;43.508;4.980;2022-12-20T08:56:43;15.40;91.30
10384;DHT22;5238;43.508;4.980;2022-12-20T08:59:10;15.40;91.30
10384;DHT22;5238;43.508;4.980;2022-12-20T09:01:37;15.40;91.30
10384;DHT22;5238;43.508;4.980;2022-12-20T09:04:09;15.40;91.30
10384;DHT22;5238;43.508;4.980;2022-12-20T09:06:36;15.50;91.30
10384;DHT22;5238;43.508;4.980;2022-12-20T09:09:04;15.50;91.30
10384;DHT22;5238;43.508;4.980;2022-12-20T09:11:33;15.50;91.30
10384;DHT22;5238;43.508;4.980;2022-12-20T09:14:01;15.50;91.30
10384;DHT22;5238;43.508;4.980;2022-12-20T09:16:30;15.50;91.30
10384;DHT22;5238;43.508;4.980;2022-12-20T09:18:59;15.50;91.30
10384;DHT22;5238;43.508;4.980;2022-12-20T09:21:27;15.50;91.30
10384;DHT22;5238;43.508;4.980;2022-12-20T09:23:55;15.50;91.30
10384;DHT22;5238;43.508;4.980;2022-12-20T09:26:25;15.60;91.30
10384;DHT22;5238;43.508;4.980;2022-12-20T09:28:55;15.60;91.30
10384;DHT22;5238;43.508;4.980;2022-12-20T09:31:24;15.70;91.30
10384;DHT22;5238;43.508;4.980;2022-12-20T09:33:53;15.70;91.30
10384;DHT22;5238;43.508;4.980;2022-12-20T09:36:23;15.70;91.30
10384;DHT22;5238;43.508;4.980;2022-12-20T09:38:52;15.80;91.30
10384;DHT22;5238;43.508;4.980;2022-12-20T09:41:25;15.80;91.30
10384;DHT22;5238;43.508;4.980;2022-12-20T09:43:54;15.80;91.30
10384;DHT22;5238;43.508;4.980;2022-12-20T09:46:25;15.80;91.30
10384;DHT22;5238;43.508;4.980;2022-12-20T09:48:53;15.80;91.30
10384;DHT22;5238;43.508;4.980;2022-12-20T09:51:39;15.80;91.30
10384;DHT22;5238;43.508;4.980;2022-12-20T09:54:17;15.80;91.30
10384;DHT22;5238;43.508;4.980;2022-12-20T09:56:57;15.80;91.30
10384;DHT22;5238;43.508;4.980;2022-12-20T09:59:26;15.80;91.30
10384;DHT22;5238;43.508;4.980;2022-12-20T10:01:57;15.80;91.30
10384;DHT22;5238;43.508;4.980;2022-12-20T10:04:26;15.80;91.30
10384;DHT22;5238;43.508;4.980;2022-12-20T10:07:09;15.80;91.30
10384;DHT22;5238;43.508;4.980;2022-12-20T10:10:01;15.90;91.30
10384;DHT22;5238;43.508;4.980;2022-12-20T10:12:36;15.90;91.30
10384;DHT22;5238;43.508;4.980;2022-12-20T10:15:18;15.90;91.30
10384;DHT22;5238;43.508;4.980;2022-12-20T10:18:14;15.90;91.30
10384;DHT22;5238;43.508;4.980;2022-12-20T10:20:56;16.10;91.30
10384;DHT22;5238;43.508;4.980;2022-12-20T10:23:29;16.10;91.30
10384;DHT22;5238;43.508;4.980;2022-12-20T10:26:00;16.20;91.30
10384;DHT22;5238;43.508;4.980;2022-12-20T10:28:30;16.20;91.30
10384;DHT22;5238;43.508;4.980;2022-12-20T10:31:00;16.30;91.30
10384;DHT22;5238;43.508;4.980;2022-12-20T10:33:30;16.40;91.30
10384;DHT22;5238;43.508;4.980;2022-12-20T10:36:16;16.50;91.30
10384;DHT22;5238;43.508;4.980;2022-12-20T10:38:44;16.60;91.30
10384;DHT22;5238;43.508;4.980;2022-12-20T10:41:15;16.70;91.30
10384;DHT22;5238;43.508;4.980;2022-12-20T10:43:45;16.90;91.30
10384;DHT22;5238;43.508;4.980;2022-12-20T10:46:14;17.00;91.30
10384;DHT22;5238;43.508;4.980;2022-12-20T10:48:45;17.10;91.30
10384;DHT22;5238;43.508;4.980;2022-12-20T10:51:15;17.20;91.30
10384;DHT22;5238;43.508;4.980;2022-12-20T10:53:50;17.40;91.30
10384;DHT22;5238;43.508;4.980;2022-12-20T10:56:21;17.50;91.30
10384;DHT22;5238;43.508;4.980;2022-12-20T10:58:54;17.60;91.30
10384;DHT22;5238;43.508;4.980;2022-12-20T11:01:27;17.70;91.30
10384;DHT22;5238;43.508;4.980;2022-12-20T11:04:00;17.80;91.30
10384;DHT22;5238;43.508;4.980;2022-12-20T11:06:40;17.90;91.30
10384;DHT22;5238;43.508;4.980;2022-12-20T11:09:22;17.90;91.30
10384;DHT22;5238;43.508;4.980;2022-12-20T11:12:10;18.00;91.30
10384;DHT22;5238;43.508;4.980;2022-12-20T11:14:39;18.00;91.30
10384;DHT22;5238;43.508;4.980;2022-12-20T11:17:20;18.00;91.30
10384;DHT22;5238;43.508;4.980;2022-12-20T11:22:59;18.10;91.30
10384;DHT22;5238;43.508;4.980;2022-12-20T11:25:45;18.10;91.30
10384;DHT22;5238;43.508;4.980;2022-12-20T11:28:26;18.10;91.30
10384;DHT22;5238;43.508;4.980;2022-12-20T11:31:06;18.10;91.30
10384;DHT22;5238;43.508;4.980;2022-12-20T11:33:54;18.20;91.30
10384;DHT22;5238;43.508;4.980;2022-12-20T11:36:35;18.20;91.30
10384;DHT22;5238;43.508;4.980;2022-12-20T11:39:14;18.20;91.30
10384;DHT22;5238;43.508;4.980;2022-12-20T11:41:46;18.20;91.30
10384;DHT22;5238;43.508;4.980;2022-12-20T11:44:22;18.20;91.30
10384;DHT22;5238;43.508;4.980;2022-12-20T11:47:11;18.20;91.30
10384;DHT22;5238;43.508;4.980;2022-12-20T11:50:00;18.20;91.30
10384;DHT22;5238;43.508;4.980;2022-12-20T11:52:34;18.20;91.30
10384;DHT22;5238;43.508;4.980;2022-12-20T11:55:16;18.20;91.30
10384;DHT22;5238;43.508;4.980;2022-12-20T11:57:56;18.20;91.30
10384;DHT22;5238;43.508;4.980;2022-12-20T12:00:26;18.10;91.30
10384;DHT22;5238;43.508;4.980;2022-12-20T12:03:00;18.10;91.30
10384;DHT22;5238;43.508;4.980;2022-12-20T12:05:35;18.10;91.30
10384;DHT22;5238;43.508;4.980;2022-12-20T12:08:11;18.10;91.30
10384;DHT22;5238;43.508;4.980;2022-12-20T12:10:47;18.00;91.30
10384;DHT22;5238;43.508;4.980;2022-12-20T12:13:24;18.00;91.30
10384;DHT22;5238;43.508;4.980;2022-12-20T12:15:56;18.00;91.30
10384;DHT22;5238;43.508;4.980;2022-12-20T12:18:28;18.00;91.30
10384;DHT22;5238;43.508;4.980;2022-12-20T12:21:00;18.00;91.30
10384;DHT22;5238;43.508;4.980;2022-12-20T12:23:35;18.00;91.30
10384;DHT22;5238;43.508;4.980;2022-12-20T12:26:12;18.10;91.30
10384;DHT22;5238;43.508;4.980;2022-12-20T12:28:40;18.10;91.30
10384;DHT22;5238;43.508;4.980;2022-12-20T12:31:13;18.10;91.30
10384;DHT22;5238;43.508;4.980;2022-12-20T12:33:45;18.10;91.30
10384;DHT22;5238;43.508;4.980;2022-12-20T12:36:26;18.10;91.30
10384;DHT22;5238;43.508;4.980;2022-12-20T12:39:15;18.20;91.30
10384;DHT22;5238;43.508;4.980;2022-12-20T12:42:12;18.20;91.30
10384;DHT22;5238;43.508;4.980;2022-12-20T12:44:57;18.20;91.30
10384;DHT22;5238;43.508;4.980;2022-12-20T12:47:33;18.20;91.30
10384;DHT22;5238;43.508;4.980;2022-12-20T12:50:05;18.20;91.30
10384;DHT22;5238;43.508;4.980;2022-12-20T12:52:41;18.10;91.30
10384;DHT22;5238;43.508;4.980;2022-12-20T12:55:40;18.10;91.30
10384;DHT22;5238;43.508;4.980;2022-12-20T13:01:08;18.00;91.30
10384;DHT22;5238;43.508;4.980;2022-12-20T13:04:20;18.00;91.30
10384;DHT22;5238;43.508;4.980;2022-12-20T13:07:18;18.00;91.30
10384;DHT22;5238;43.508;4.980;2022-12-20T13:09:50;17.90;91.30
10384;DHT22;5238;43.508;4.980;2022-12-20T13:12:54;17.80;91.30
10384;DHT22;5238;43.508;4.980;2022-12-20T13:18:28;17.70;91.30
10384;DHT22;5238;43.508;4.980;2022-12-20T13:21:30;17.60;91.30
10384;DHT22;5238;43.508;4.980;2022-12-20T13:27:23;17.50;91.30
10384;DHT22;5238;43.508;4.980;2022-12-20T13:29:58;17.60;91.30
10384;DHT22;5238;43.508;4.980;2022-12-20T13:38:58;17.60;91.30
10384;DHT22;5238;43.508;4.980;2022-12-20T13:41:33;17.50;91.30
10384;DHT22;5238;43.508;4.980;2022-12-20T13:47:04;17.50;91.30
10384;DHT22;5238;43.508;4.980;2022-12-20T13:50:27;17.50;91.30
10384;DHT22;5238;43.508;4.980;2022-12-20T13:53:01;17.50;91.30
10384;DHT22;5238;43.508;4.980;2022-12-20T13:55:36;17.50;91.30
10384;DHT22;5238;43.508;4.980;2022-12-20T13:58:12;17.40;91.30
10384;DHT22;5238;43.508;4.980;2022-12-20T14:00:41;17.40;91.30
10384;DHT22;5238;43.508;4.980;2022-12-20T14:03:19;17.40;91.30
10384;DHT22;5238;43.508;4.980;2022-12-20T14:05:47;17.40;91.30
10384;DHT22;5238;43.508;4.980;2022-12-20T14:08:17;17.40;91.30
10384;DHT22;5238;43.508;4.980;2022-12-20T14:10:48;17.40;91.30
10384;DHT22;5238;43.508;4.980;2022-12-20T14:13:20;17.40;91.30
10384;DHT22;5238;43.508;4.980;2022-12-20T14:15:48;17.40;91.30
10384;DHT22;5238;43.508;4.980;2022-12-20T14:18:18;17.40;91.30
10384;DHT22;5238;43.508;4.980;2022-12-20T14:20:48;17.40;91.30
10384;DHT22;5238;43.508;4.980;2022-12-20T14:23:19;17.40;91.30
10384;DHT22;5238;43.508;4.980;2022-12-20T14:25:50;17.40;91.30
10384;DHT22;5238;43.508;4.980;2022-12-20T14:28:29;17.40;91.30
10384;DHT22;5238;43.508;4.980;2022-12-20T14:30:58;17.40;91.30
10384;DHT22;5238;43.508;4.980;2022-12-20T14:33:34;17.30;91.30
10384;DHT22;5238;43.508;4.980;2022-12-20T14:36:25;17.30;91.30
10384;DHT22;5238;43.508;4.980;2022-12-20T14:38:53;17.30;91.30
10384;DHT22;5238;43.508;4.980;2022-12-20T14:41:33;17.30;91.30
10384;DHT22;5238;43.508;4.980;2022-12-20T14:44:12;17.30;91.30
10384;DHT22;5238;43.508;4.980;2022-12-20T14:46:39;17.30;91.30
10384;DHT22;5238;43.508;4.980;2022-12-20T14:49:19;17.30;91.30
10384;DHT22;5238;43.508;4.980;2022-12-20T14:51:47;17.30;91.30
10384;DHT22;5238;43.508;4.980;2022-12-20T14:54:17;17.20;91.30
10384;DHT22;5238;43.508;4.980;2022-12-20T14:56:47;17.20;91.30
10384;DHT22;5238;43.508;4.980;2022-12-20T14:59:21;17.20;91.30
10384;DHT22;5238;43.508;4.980;2022-12-20T15:01:50;17.20;91.30
10384;DHT22;5238;43.508;4.980;2022-12-20T15:04:23;17.20;91.30
10384;DHT22;5238;43.508;4.980;2022-12-20T15:06:51;17.20;91.30
10384;DHT22;5238;43.508;4.980;2022-12-20T15:09:19;17.10;91.30
10384;DHT22;5238;43.508;4.980;2022-12-20T15:11:47;17.10;91.30
10384;DHT22;5238;43.508;4.980;2022-12-20T15:14:30;17.10;91.30
10384;DHT22;5238;43.508;4.980;2022-12-20T15:16:57;17.10;91.30
10384;DHT22;5238;43.508;4.980;2022-12-20T15:19:24;17.00;91.30
10384;DHT22;5238;43.508;4.980;2022-12-20T15:21:52;17.00;91.30
10384;DHT22;5238;43.508;4.980;2022-12-20T15:24:22;16.90;91.30
10384;DHT22;5238;43.508;4.980;2022-12-20T15:26:51;16.90;91.30
10384;DHT22;5238;43.508;4.980;2022-12-20T15:29:20;16.90;91.30
10384;DHT22;5238;43.508;4.980;2022-12-20T15:31:49;16.90;91.30
10384;DHT22;5238;43.508;4.980;2022-12-20T15:34:19;16.80;91.30
10384;DHT22;5238;43.508;4.980;2022-12-20T15:36:48;16.80;91.30
10384;DHT22;5238;43.508;4.980;2022-12-20T15:39:14;16.80;91.30
10384;DHT22;5238;43.508;4.980;2022-12-20T15:41:47;16.80;91.30
10384;DHT22;5238;43.508;4.980;2022-12-20T15:44:18;16.80;91.30
10384;DHT22;5238;43.508;4.980;2022-12-20T15:46:48;16.70;91.30
10384;DHT22;5238;43.508;4.980;2022-12-20T15:49:16;16.70;91.30
10384;DHT22;5238;43.508;4.980;2022-12-20T15:51:44;16.70;91.30
10384;DHT22;5238;43.508;4.980;2022-12-20T15:54:22;16.60;91.30
10384;DHT22;5238;43.508;4.980;2022-12-20T15:56:53;16.60;91.30
10384;DHT22;5238;43.508;4.980;2022-12-20T15:59:22;16.60;91.30
10384;DHT22;5238;43.508;4.980;2022-12-20T16:01:49;16.50;91.30
10384;DHT22;5238;43.508;4.980;2022-12-20T16:04:18;16.50;91.30
10384;DHT22;5238;43.508;4.980;2022-12-20T16:06:47;16.50;91.30
10384;DHT22;5238;43.508;4.980;2022-12-20T16:09:15;16.40;91.30
10384;DHT22;5238;43.508;4.980;2022-12-20T16:11:42;16.40;91.30
10384;DHT22;5238;43.508;4.980;2022-12-20T16:14:14;16.40;91.30
10384;DHT22;5238;43.508;4.980;2022-12-20T16:16:43;16.30;91.30
10384;DHT22;5238;43.508;4.980;2022-12-20T16:19:17;16.30;91.30
10384;DHT22;5238;43.508;4.980;2022-12-20T16:21:46;16.30;91.30
10384;DHT22;5238;43.508;4.980;2022-12-20T16:24:16;16.30;91.30
10384;DHT22;5238;43.508;4.980;2022-12-20T16:26:44;16.20;91.30
10384;DHT22;5238;43.508;4.980;2022-12-20T16:29:11;16.20;91.30
10384;DHT22;5238;43.508;4.980;2022-12-20T16:31:43;16.20;91.30
10384;DHT22;5238;43.508;4.980;2022-12-20T16:34:21;16.20;91.30
10384;DHT22;5238;43.508;4.980;2022-12-20T16:37:02;16.10;91.30